createdAt,value
2019-04-30T00:00:42.524Z,88.8
2019-04-30T00:01:58.922Z,88.5
2019-04-30T00:03:00.996Z,87.2
2019-04-30T00:04:10.364Z,88
2019-04-30T00:05:19.531Z,88.6
2019-04-30T00:06:39.296Z,88.5
2019-04-30T00:07:38.323Z,89.5
2019-04-30T00:08:47.406Z,89.3
2019-04-30T00:09:57.808Z,89.9
2019-04-30T00:11:05.842Z,89.7
2019-04-30T00:12:15.862Z,90.6
2019-04-30T00:13:26.007Z,90.8
2019-04-30T00:14:41.289Z,90.5
2019-04-30T00:15:42.859Z,90.6
2019-04-30T00:16:52.377Z,90.1
2019-04-30T00:18:01.995Z,90.1
2019-04-30T00:19:19.161Z,90.4
2019-04-30T00:20:19.932Z,91.1
2019-04-30T00:21:29.190Z,91.5
2019-04-30T00:22:46.949Z,91.1
2019-04-30T00:23:47.992Z,91.8
2019-04-30T00:24:56.932Z,91.6
2019-04-30T00:26:10.602Z,91.8
2019-04-30T00:27:15.464Z,91.9
2019-04-30T00:28:25.636Z,92.4
2019-04-30T00:29:35.722Z,92.6
2019-04-30T00:30:47.296Z,92.1
2019-04-30T00:31:52.465Z,91.8
2019-04-30T00:33:01.749Z,91.3
2019-04-30T00:34:10.978Z,92.1
2019-04-30T00:35:20.296Z,91.7
2019-04-30T00:36:36.947Z,92.1
2019-04-30T00:37:38.754Z,91.8
2019-04-30T00:38:48.029Z,91.9
2019-04-30T00:39:57.283Z,91.6
2019-04-30T00:41:10.249Z,92
2019-04-30T00:42:24.138Z,91.8
2019-04-30T00:43:25.371Z,92.2
2019-04-30T00:44:35.769Z,91.8
2019-04-30T00:45:47.489Z,91.8
2019-04-30T00:46:52.778Z,91.7
2019-04-30T00:48:02.032Z,92.9
2019-04-30T00:49:22.669Z,92.6
2019-04-30T00:50:20.600Z,92.7
2019-04-30T00:51:29.801Z,93
2019-04-30T00:52:39.043Z,92.4
2019-04-30T00:53:52.517Z,93.5
2019-04-30T00:55:04.528Z,93.3
2019-04-30T00:56:07.081Z,93.1
2019-04-30T00:57:16.119Z,93.6
2019-04-30T00:58:30.456Z,93.7
2019-04-30T00:59:35.215Z,94
2019-04-30T01:00:45.563Z,93.5
2019-04-30T01:01:53.194Z,93
2019-04-30T01:03:09.298Z,93.2
2019-04-30T01:04:11.578Z,92.4
2019-04-30T01:05:20.855Z,93.7
2019-04-30T01:06:30.154Z,93.5
2019-04-30T01:07:47.880Z,92.9
2019-04-30T01:08:48.552Z,93.2
2019-04-30T01:09:57.831Z,93.3
2019-04-30T01:11:09.756Z,93.5
2019-04-30T01:12:28.492Z,94
2019-04-30T01:13:25.557Z,94.3
2019-04-30T01:14:34.840Z,93.2
2019-04-30T01:15:51.404Z,92.9
2019-04-30T01:16:53.336Z,93.1
2019-04-30T01:18:02.528Z,93.5
2019-04-30T01:19:30.523Z,93.4
2019-04-30T01:20:28.429Z,93.5
2019-04-30T01:21:30.304Z,94
2019-04-30T01:22:39.651Z,94
2019-04-30T01:23:54.802Z,93.7
2019-04-30T01:25:08.771Z,94.2
2019-04-30T01:26:08.888Z,93.8
2019-04-30T01:27:18.881Z,93.8
2019-04-30T01:28:25.945Z,93.5
2019-04-30T01:29:44.248Z,93.7
2019-04-30T01:30:44.251Z,94.2
2019-04-30T01:31:53.512Z,94.2
2019-04-30T01:33:02.740Z,94.2
2019-04-30T01:34:14.241Z,95
2019-04-30T01:35:28.185Z,94.7
2019-04-30T01:36:30.468Z,94.5
2019-04-30T01:37:39.796Z,94.8
2019-04-30T01:38:52.619Z,94.6
2019-04-30T01:40:03.232Z,95.4
2019-04-30T01:41:09.580Z,95.1
2019-04-30T01:42:18.592Z,95.3
2019-04-30T01:43:34.563Z,95.8
2019-04-30T01:44:35.242Z,96.6
2019-04-30T01:45:45.673Z,96.3
2019-04-30T01:46:53.776Z,97.1
2019-04-30T01:48:12.536Z,96.1
2019-04-30T01:49:12.198Z,96.1
2019-04-30T01:50:21.494Z,96.6
2019-04-30T01:51:30.635Z,97.4
2019-04-30T01:52:41.204Z,98.1
2019-04-30T01:53:49.110Z,97.3
2019-04-30T01:54:58.746Z,97.3
2019-04-30T01:56:09.248Z,96.9
2019-04-30T01:57:16.827Z,97.6
2019-04-30T01:58:26.095Z,98.7
2019-04-30T01:59:35.380Z,99
2019-04-30T02:00:44.544Z,98.4
2019-04-30T02:01:53.797Z,98.5
2019-04-30T02:03:03.122Z,98.3
2019-04-30T02:04:12.282Z,98.5
2019-04-30T02:05:21.546Z,98.3
2019-04-30T02:06:30.742Z,98.5
2019-04-30T02:07:40.492Z,98.9
2019-04-30T02:08:49.515Z,99.8
2019-04-30T02:09:58.981Z,99
2019-04-30T02:11:09.141Z,99.9
2019-04-30T02:12:16.945Z,99.4
2019-04-30T02:14:35.509Z,99.9
2019-04-30T02:15:44.663Z,99.9
2019-04-30T02:16:53.866Z,99.9
2019-04-30T02:18:03.148Z,99.9
2019-04-30T02:19:12.339Z,99.9
2019-04-30T02:20:21.614Z,99.9
2019-04-30T02:21:33.508Z,99.9
2019-04-30T02:22:40.113Z,99.9
2019-04-30T02:23:49.493Z,99.9
2019-04-30T02:24:58.749Z,99.9
2019-04-30T02:26:08.746Z,99.9
2019-04-30T02:27:21.692Z,99.9
2019-04-30T02:28:26.205Z,99.9
2019-04-30T02:29:35.699Z,99.9
2019-04-30T02:30:44.795Z,99.9
2019-04-30T02:31:53.898Z,99.9
2019-04-30T02:33:03.177Z,99.9
2019-04-30T02:34:12.363Z,99.9
2019-04-30T02:35:21.660Z,99.9
2019-04-30T02:36:30.853Z,99.9
2019-04-30T02:38:49.555Z,99.9
2019-04-30T02:40:01.118Z,99.9
2019-04-30T02:41:10.066Z,99.9
2019-04-30T02:42:20.393Z,99.9
2019-04-30T02:43:26.269Z,99.9
2019-04-30T02:44:35.566Z,99.9
2019-04-30T02:45:44.688Z,99.9
2019-04-30T02:46:54.084Z,99.9
2019-04-30T02:48:03.241Z,99.9
2019-04-30T02:49:13.030Z,99.9
2019-04-30T02:50:22.771Z,99.9
2019-04-30T02:51:30.893Z,99.9
2019-04-30T02:52:40.302Z,99.9
2019-04-30T02:53:50.880Z,99.9
2019-04-30T02:54:59.492Z,99.9
2019-04-30T02:56:10.030Z,99.9
2019-04-30T02:57:16.903Z,99.9
2019-04-30T02:58:26.132Z,99.9
2019-04-30T02:59:35.398Z,99.9
2019-04-30T03:00:44.666Z,99.9
2019-04-30T03:01:54.606Z,99.9
2019-04-30T03:03:03.034Z,99.9
2019-04-30T03:04:12.251Z,99.9
2019-04-30T03:05:21.550Z,99.9
2019-04-30T03:06:30.784Z,99.9
2019-04-30T03:07:40.975Z,99.9
2019-04-30T03:08:51.506Z,99.9
2019-04-30T03:10:00.101Z,99.9
2019-04-30T03:11:09.873Z,99.9
2019-04-30T03:12:16.901Z,99.9
2019-04-30T03:13:26.014Z,99.9
2019-04-30T03:14:35.407Z,99.9
2019-04-30T03:15:44.570Z,99.9
2019-04-30T03:16:53.707Z,99.9
2019-04-30T03:18:02.946Z,99.9
2019-04-30T03:19:12.109Z,99.9
2019-04-30T03:20:36.262Z,99.9
2019-04-30T03:21:32.175Z,99.9
2019-04-30T03:22:40.080Z,99.9
2019-04-30T03:23:50.454Z,99.9
2019-04-30T03:24:59.977Z,99.9
2019-04-30T03:26:13.042Z,99.9
2019-04-30T03:27:16.724Z,99.9
2019-04-30T03:28:25.861Z,99.9
2019-04-30T03:29:35.177Z,99.9
2019-04-30T03:30:44.276Z,99.9
2019-04-30T03:31:53.505Z,99.9
2019-04-30T03:33:03.354Z,99.9
2019-04-30T03:34:25.093Z,99.9
2019-04-30T03:35:23.340Z,99.9
2019-04-30T03:36:32.863Z,99.9
2019-04-30T03:37:39.823Z,99.9
2019-04-30T03:38:50.313Z,99.9
2019-04-30T03:40:00.790Z,99.9
2019-04-30T03:41:09.840Z,99.9
2019-04-30T03:42:16.433Z,99.9
2019-04-30T03:43:25.677Z,99.9
2019-04-30T03:44:34.908Z,99.9
2019-04-30T03:45:44.206Z,99.9
2019-04-30T03:46:53.290Z,99.9
2019-04-30T03:48:02.520Z,99.9
2019-04-30T03:49:13.671Z,99.9
2019-04-30T03:50:21.065Z,99.9
2019-04-30T03:51:30.544Z,99.9
2019-04-30T03:52:39.620Z,99.9
2019-04-30T03:53:50.322Z,99.9
2019-04-30T03:55:03.067Z,99.9
2019-04-30T03:57:16.350Z,97.8
2019-04-30T03:58:25.435Z,95.8
2019-04-30T03:59:34.678Z,93.9
2019-04-30T04:00:46.820Z,93.5
2019-04-30T04:01:54.206Z,92
2019-04-30T04:03:03.414Z,89.1
2019-04-30T04:04:12.646Z,86.3
2019-04-30T04:05:21.921Z,83.3
2019-04-30T04:06:31.125Z,83.1
2019-04-30T04:07:40.449Z,79
2019-04-30T04:08:49.583Z,76.4
2019-04-30T04:09:59.992Z,74.1
2019-04-30T04:11:10.234Z,72.8
2019-04-30T04:12:20.768Z,70.1
2019-04-30T04:13:26.606Z,71.3
2019-04-30T04:14:35.729Z,68.4
2019-04-30T04:15:44.973Z,68.2
2019-04-30T04:16:54.216Z,63.3
2019-04-30T04:18:03.476Z,63.1
2019-04-30T04:19:12.718Z,64.9
2019-04-30T04:20:21.974Z,67.2
2019-04-30T04:21:31.497Z,63.6
2019-04-30T04:22:40.591Z,62.5
2019-04-30T04:23:49.798Z,62.7
2019-04-30T04:25:00.373Z,59.7
2019-04-30T04:26:09.644Z,58.3
2019-04-30T04:27:19.816Z,54.9
2019-04-30T04:28:26.858Z,51.6
2019-04-30T04:29:36.109Z,53.4
2019-04-30T04:30:45.388Z,51.9
2019-04-30T04:31:54.676Z,50.6
2019-04-30T04:33:03.938Z,49
2019-04-30T04:34:13.221Z,47.8
2019-04-30T04:35:22.526Z,48.7
2019-04-30T04:36:31.808Z,46.5
2019-04-30T04:37:41.117Z,48
2019-04-30T04:38:50.984Z,46.8
2019-04-30T04:39:59.965Z,44.9
2019-04-30T04:41:10.568Z,42.6
2019-04-30T04:42:19.819Z,43.5
2019-04-30T04:43:30.178Z,40.9
2019-04-30T04:44:40.028Z,39.2
2019-04-30T04:45:46.288Z,38.4
2019-04-30T04:46:55.620Z,38.6
2019-04-30T04:48:04.942Z,38.9
2019-04-30T04:49:14.255Z,39.5
2019-04-30T04:50:23.580Z,38.4
2019-04-30T04:51:42.143Z,36.5
2019-04-30T04:52:42.415Z,35.6
2019-04-30T04:53:51.704Z,37.8
2019-04-30T04:55:00.948Z,36.7
2019-04-30T04:56:10.355Z,36.5
2019-04-30T04:57:23.161Z,38.2
2019-04-30T04:58:30.525Z,36
2019-04-30T04:59:42.628Z,35.6
2019-04-30T05:00:49.702Z,34.1
2019-04-30T05:01:56.989Z,34.3
2019-04-30T05:03:06.453Z,34.3
2019-04-30T05:04:15.738Z,32.1
2019-04-30T05:05:25.123Z,32.1
2019-04-30T05:06:34.435Z,31.5
2019-04-30T05:07:43.807Z,29.7
2019-04-30T05:08:53.232Z,30.6
2019-04-30T05:10:02.585Z,30.2
2019-04-30T05:11:11.936Z,28.7
2019-04-30T05:12:21.370Z,28.4
2019-04-30T05:13:30.694Z,28
2019-04-30T05:14:40.084Z,26.1
2019-04-30T05:15:51.737Z,23.7
2019-04-30T05:16:58.870Z,24.1
2019-04-30T05:18:09.356Z,21.9
2019-04-30T05:19:18.858Z,21.4
2019-04-30T05:20:29.340Z,21.7
2019-04-30T05:21:44.721Z,20.9
2019-04-30T05:22:49.007Z,19.7
2019-04-30T05:23:56.362Z,19.5
2019-04-30T05:25:05.765Z,18.2
2019-04-30T05:26:15.503Z,18.8
2019-04-30T05:27:24.716Z,18.5
2019-04-30T05:28:34.064Z,19.5
2019-04-30T05:29:43.556Z,18.2
2019-04-30T05:30:52.926Z,16.1
2019-04-30T05:32:02.376Z,16.9
2019-04-30T05:33:11.953Z,15.5
2019-04-30T05:34:21.355Z,16.1
2019-04-30T05:35:31.291Z,18.9
2019-04-30T05:36:40.429Z,19
2019-04-30T05:37:50.767Z,18
2019-04-30T05:39:00.330Z,16.1
2019-04-30T05:40:09.731Z,15.7
2019-04-30T05:41:20.042Z,16.3
2019-04-30T05:42:28.715Z,15
2019-04-30T05:43:38.817Z,14.9
2019-04-30T05:44:49.883Z,15.1
2019-04-30T05:45:58.840Z,13.8
2019-04-30T05:47:06.758Z,15.7
2019-04-30T05:48:18.707Z,15
2019-04-30T05:49:25.711Z,15
2019-04-30T05:50:35.331Z,14.9
2019-04-30T05:51:55.779Z,13.9
2019-04-30T05:52:55.469Z,13.7
2019-04-30T05:54:05.037Z,13.3
2019-04-30T05:55:14.580Z,13.5
2019-04-30T05:56:24.268Z,12.7
2019-04-30T05:57:33.672Z,11.9
2019-04-30T05:58:43.167Z,11.6
2019-04-30T05:59:52.853Z,11.8
2019-04-30T06:02:11.932Z,11.7
2019-04-30T06:04:31.005Z,10.9
2019-04-30T06:05:40.584Z,10.1
2019-04-30T06:06:50.278Z,10.8
2019-04-30T06:07:59.768Z,10.1
2019-04-30T06:09:22.646Z,11.1
2019-04-30T06:10:19.412Z,11
2019-04-30T06:11:29.333Z,11.2
2019-04-30T06:12:39.356Z,9.6
2019-04-30T06:13:49.290Z,10
2019-04-30T06:14:59.041Z,9
2019-04-30T06:16:08.895Z,9.9
2019-04-30T06:17:16.646Z,11.7
2019-04-30T06:18:26.257Z,10.1
2019-04-30T06:19:35.875Z,9.5
2019-04-30T06:20:45.528Z,9.1
2019-04-30T06:22:08.027Z,8.5
2019-04-30T06:23:04.785Z,7.9
2019-04-30T06:24:14.945Z,7.4
2019-04-30T06:25:41.170Z,8.2
2019-04-30T06:26:33.729Z,8.3
2019-04-30T06:27:43.372Z,7.7
2019-04-30T06:28:53.037Z,7.6
2019-04-30T06:30:02.714Z,8.3
2019-04-30T06:31:12.424Z,6.7
2019-04-30T06:32:22.084Z,7.5
2019-04-30T06:33:31.803Z,8.4
2019-04-30T06:34:42.167Z,7.8
2019-04-30T06:35:51.167Z,8.4
2019-04-30T06:37:00.993Z,7.1
2019-04-30T06:38:10.621Z,6.5
2019-04-30T06:39:20.416Z,6.2
2019-04-30T06:40:30.047Z,6.9
2019-04-30T06:41:41.111Z,6
2019-04-30T06:42:49.718Z,5.6
2019-04-30T06:43:59.246Z,6
2019-04-30T06:45:09.331Z,7.1
2019-04-30T06:46:18.843Z,6.9
2019-04-30T06:47:33.518Z,7.2
2019-04-30T06:48:41.807Z,6.9
2019-04-30T06:49:49.011Z,5.5
2019-04-30T06:50:59.369Z,6.3
2019-04-30T06:52:21.193Z,5.1
2019-04-30T06:53:19.362Z,4.7
2019-04-30T06:54:28.848Z,5.2
2019-04-30T06:55:39.464Z,5
2019-04-30T06:56:48.633Z,5.8
2019-04-30T06:57:56.351Z,6.7
2019-04-30T06:59:06.197Z,5.6
2019-04-30T07:00:15.912Z,6.2
2019-04-30T07:01:26.081Z,5.4
2019-04-30T07:02:35.585Z,6
2019-04-30T07:04:55.126Z,4.4
2019-04-30T07:06:04.946Z,5.7
2019-04-30T07:07:22.944Z,4.5
2019-04-30T07:08:40.338Z,3.7
2019-04-30T07:09:51.884Z,3.3
2019-04-30T07:10:57.109Z,3.2
2019-04-30T07:11:54.309Z,3.3
2019-04-30T07:13:03.919Z,3.7
2019-04-30T07:14:13.758Z,3.6
2019-04-30T07:15:23.604Z,4.8
2019-04-30T07:16:33.493Z,3.2
2019-04-30T07:17:43.340Z,2.9
2019-04-30T07:18:53.192Z,3
2019-04-30T07:20:03.386Z,2.9
2019-04-30T07:21:12.988Z,3.3
2019-04-30T07:22:40.552Z,2.5
2019-04-30T07:23:32.829Z,2.1
2019-04-30T07:24:42.715Z,2.3
2019-04-30T07:25:52.758Z,2.6
2019-04-30T07:27:03.068Z,2.2
2019-04-30T07:28:12.483Z,2.3
2019-04-30T07:29:22.353Z,3.4
2019-04-30T07:30:32.340Z,1.4
2019-04-30T07:31:42.820Z,1
2019-04-30T07:32:52.176Z,1
2019-04-30T07:34:02.253Z,1
2019-04-30T07:35:12.241Z,1
2019-04-30T07:36:22.149Z,1
2019-04-30T07:37:32.058Z,1
2019-04-30T07:38:56.074Z,1
2019-04-30T07:39:52.061Z,1
2019-04-30T07:41:02.090Z,1
2019-04-30T07:42:12.054Z,1.7
2019-04-30T07:43:22.049Z,1.1
2019-04-30T07:44:36.807Z,2.2
2019-04-30T07:45:42.050Z,1
2019-04-30T07:46:52.298Z,1
2019-04-30T07:48:02.134Z,1
2019-04-30T07:49:12.098Z,1
2019-04-30T07:50:23.420Z,1
2019-04-30T07:51:38.689Z,1
2019-04-30T07:53:52.348Z,1
2019-04-30T07:55:02.419Z,1.5
2019-04-30T07:56:28.372Z,1
2019-04-30T07:57:22.806Z,1
2019-04-30T07:58:32.534Z,1
2019-04-30T07:59:42.832Z,1
2019-04-30T08:02:14.457Z,1
2019-04-30T08:03:13.449Z,1
2019-04-30T08:04:23.004Z,1
2019-04-30T08:05:33.060Z,1
2019-04-30T08:06:43.668Z,1
2019-04-30T08:07:53.688Z,1
2019-04-30T08:09:03.769Z,1
2019-04-30T08:10:13.613Z,1
2019-04-30T08:11:26.637Z,1
2019-04-30T08:12:38.744Z,1
2019-04-30T08:13:44.956Z,1
2019-04-30T08:14:54.449Z,1
2019-04-30T08:16:04.510Z,1
2019-04-30T08:17:14.714Z,1
2019-04-30T08:18:24.834Z,1
2019-04-30T08:19:35.039Z,1
2019-04-30T08:20:45.276Z,1
2019-04-30T08:21:55.457Z,1
2019-04-30T08:23:24.889Z,1
2019-04-30T08:24:15.892Z,1
2019-04-30T08:25:26.202Z,1
2019-04-30T08:26:36.426Z,1
2019-04-30T08:27:46.543Z,1
2019-04-30T08:28:56.781Z,1
2019-04-30T08:30:26.389Z,1
2019-04-30T08:31:19.054Z,1
2019-04-30T08:32:29.135Z,1
2019-04-30T08:33:37.739Z,1
2019-04-30T08:34:50.275Z,1
2019-04-30T08:36:01.057Z,1
2019-04-30T08:37:19.648Z,1
2019-04-30T08:38:19.252Z,1
2019-04-30T08:39:31.889Z,1
2019-04-30T08:41:49.544Z,1
2019-04-30T08:42:59.809Z,1
2019-04-30T08:44:10.063Z,1
2019-04-30T08:45:20.353Z,1
2019-04-30T08:46:30.528Z,1
2019-04-30T08:47:40.900Z,1
2019-04-30T08:48:53.872Z,1
2019-04-30T08:50:03.128Z,1
2019-04-30T08:51:14.242Z,1
2019-04-30T08:52:21.685Z,1
2019-04-30T08:53:34.127Z,1
2019-04-30T08:54:42.144Z,1
2019-04-30T08:55:52.645Z,1
2019-04-30T08:57:02.354Z,1
2019-04-30T08:58:15.391Z,1
2019-04-30T08:59:22.958Z,1
2019-04-30T09:00:32.978Z,1
2019-04-30T09:01:43.201Z,1
2019-04-30T09:02:54.428Z,1
2019-04-30T09:04:07.810Z,1
2019-04-30T09:05:14.766Z,1
2019-04-30T09:06:25.917Z,1
2019-04-30T09:07:35.188Z,1
2019-04-30T09:08:45.350Z,1
2019-04-30T09:09:55.478Z,1
2019-04-30T09:11:05.744Z,1
2019-04-30T09:12:15.835Z,1
2019-04-30T09:13:26.033Z,1
2019-04-30T09:14:36.186Z,1
2019-04-30T09:15:46.397Z,1
2019-04-30T09:16:56.492Z,1
2019-04-30T09:19:16.833Z,1
2019-04-30T09:20:28.675Z,1
2019-04-30T09:21:40.198Z,1
2019-04-30T09:22:47.209Z,1
2019-04-30T09:23:59.576Z,1
2019-04-30T09:25:09.375Z,1
2019-04-30T09:26:18.846Z,1
2019-04-30T09:27:29.848Z,1
2019-04-30T09:28:41.112Z,1
2019-04-30T09:29:49.407Z,1
2019-04-30T09:30:58.841Z,1
2019-04-30T09:32:09.390Z,1
2019-04-30T09:34:29.308Z,1
2019-04-30T09:35:39.625Z,1
2019-04-30T09:36:49.169Z,1
2019-04-30T09:38:02.041Z,1
2019-04-30T09:39:09.111Z,1
2019-04-30T09:40:21.328Z,1
2019-04-30T09:41:28.943Z,1
2019-04-30T09:42:39.148Z,1
2019-04-30T09:43:49.533Z,1
2019-04-30T09:44:59.744Z,1.4
2019-04-30T09:46:26.113Z,1
2019-04-30T09:47:20.239Z,1
2019-04-30T09:48:30.748Z,1
2019-04-30T09:49:41.535Z,1
2019-04-30T09:50:50.586Z,1
2019-04-30T09:52:00.579Z,1
2019-04-30T09:53:10.575Z,1
2019-04-30T09:54:20.624Z,1
2019-04-30T09:55:29.414Z,1
2019-04-30T09:56:40.152Z,1
2019-04-30T09:57:49.488Z,1
2019-04-30T09:58:59.454Z,1
2019-04-30T10:00:09.543Z,1
2019-04-30T10:01:22.198Z,1
2019-04-30T10:02:29.705Z,1
2019-04-30T10:03:41.480Z,1
2019-04-30T10:04:50.652Z,1
2019-04-30T10:05:59.888Z,1
2019-04-30T10:07:09.996Z,1
2019-04-30T10:08:21.296Z,1
2019-04-30T10:09:30.168Z,1
2019-04-30T10:10:40.190Z,1
2019-04-30T10:11:50.292Z,1
2019-04-30T10:13:00.260Z,1
2019-04-30T10:14:10.269Z,1
2019-04-30T10:15:20.598Z,1
2019-04-30T10:16:30.527Z,1
2019-04-30T10:17:40.581Z,1
2019-04-30T10:18:50.757Z,1
2019-04-30T10:20:00.481Z,1
2019-04-30T10:21:10.532Z,1
2019-04-30T10:22:21.107Z,1
2019-04-30T10:23:30.691Z,1
2019-04-30T10:24:41.373Z,1
2019-04-30T10:25:50.947Z,1
2019-04-30T10:27:01.021Z,1
2019-04-30T10:28:10.999Z,1
2019-04-30T10:29:21.069Z,1
2019-04-30T10:30:31.105Z,1
2019-04-30T10:31:41.208Z,1
2019-04-30T10:32:51.627Z,1
2019-04-30T10:34:01.188Z,1
2019-04-30T10:35:11.314Z,1
2019-04-30T10:36:21.367Z,1
2019-04-30T10:37:31.554Z,1
2019-04-30T10:38:41.468Z,1
2019-04-30T10:39:51.966Z,1
2019-04-30T10:41:01.760Z,1
2019-04-30T10:42:11.728Z,1
2019-04-30T10:43:21.728Z,1
2019-04-30T10:44:31.942Z,1
2019-04-30T10:45:41.913Z,1
2019-04-30T10:46:51.968Z,1
2019-04-30T10:48:02.076Z,1
2019-04-30T10:49:12.353Z,1
2019-04-30T10:50:22.312Z,1
2019-04-30T10:51:32.402Z,1
2019-04-30T10:52:42.567Z,1
2019-04-30T10:53:52.633Z,1
2019-04-30T10:55:04.747Z,1
2019-04-30T10:56:13.159Z,1
2019-04-30T10:57:23.008Z,1
2019-04-30T10:58:33.280Z,1
2019-04-30T10:59:43.241Z,1
2019-04-30T11:00:53.406Z,1
2019-04-30T11:02:03.549Z,1
2019-04-30T11:03:22.923Z,1
2019-04-30T11:04:23.568Z,1
2019-04-30T11:05:33.579Z,1
2019-04-30T11:06:43.623Z,1
2019-04-30T11:07:53.630Z,1
2019-04-30T11:09:03.668Z,1
2019-04-30T11:10:13.690Z,1
2019-04-30T11:11:23.650Z,1
2019-04-30T11:12:33.676Z,1
2019-04-30T11:13:43.685Z,1
2019-04-30T11:14:53.688Z,1
2019-04-30T11:16:15.529Z,1
2019-04-30T11:17:14.364Z,1
2019-04-30T11:18:24.150Z,1
2019-04-30T11:19:33.995Z,1
2019-04-30T11:20:44.196Z,1
2019-04-30T11:21:54.238Z,1
2019-04-30T11:23:15.103Z,1
2019-04-30T11:24:14.295Z,1
2019-04-30T11:25:25.910Z,1
2019-04-30T11:26:35.093Z,1
2019-04-30T11:27:44.952Z,1
2019-04-30T11:28:54.520Z,1
2019-04-30T11:30:05.970Z,1
2019-04-30T11:31:14.502Z,1
2019-04-30T11:32:24.715Z,1
2019-04-30T11:33:35.050Z,1
2019-04-30T11:34:44.392Z,1
2019-04-30T11:36:04.989Z,1
2019-04-30T11:37:04.577Z,1
2019-04-30T11:38:14.670Z,1
2019-04-30T11:39:24.690Z,1
2019-04-30T11:40:40.021Z,1
2019-04-30T11:41:44.816Z,1
2019-04-30T11:42:54.908Z,1
2019-04-30T11:44:04.940Z,1
2019-04-30T11:45:15.065Z,1
2019-04-30T11:46:25.041Z,1
2019-04-30T11:47:35.417Z,1
2019-04-30T11:48:45.116Z,1
2019-04-30T11:49:55.112Z,1
2019-04-30T11:51:05.095Z,1
2019-04-30T11:52:15.087Z,1
2019-04-30T11:53:30.629Z,1
2019-04-30T11:54:35.075Z,1
2019-04-30T11:55:49.313Z,1
2019-04-30T11:56:55.200Z,1
2019-04-30T11:58:05.097Z,1
2019-04-30T11:59:15.098Z,1
2019-04-30T12:00:25.164Z,1
2019-04-30T12:01:35.256Z,1
2019-04-30T12:02:45.478Z,1
2019-04-30T12:03:55.240Z,1
2019-04-30T12:05:05.817Z,1
2019-04-30T12:06:15.570Z,1
2019-04-30T12:07:25.503Z,1
2019-04-30T12:08:35.702Z,1
2019-04-30T12:09:45.714Z,1
2019-04-30T12:10:55.909Z,1
2019-04-30T12:12:05.933Z,1
2019-04-30T12:13:16.114Z,1
2019-04-30T12:14:26.270Z,1
2019-04-30T12:15:36.468Z,1
2019-04-30T12:16:46.581Z,1
2019-04-30T12:17:56.606Z,1
2019-04-30T12:19:06.712Z,1
2019-04-30T12:20:16.899Z,1
2019-04-30T12:21:27.104Z,1
2019-04-30T12:22:37.106Z,1
2019-04-30T12:23:47.255Z,1
2019-04-30T12:25:05.556Z,1
2019-04-30T12:26:09.359Z,1
2019-04-30T12:27:18.786Z,1
2019-04-30T12:30:49.304Z,1
2019-04-30T12:31:59.439Z,1
2019-04-30T12:33:09.554Z,1
2019-04-30T12:34:19.720Z,1
2019-04-30T12:35:29.850Z,1
2019-04-30T12:36:40.136Z,1
2019-04-30T12:37:52.579Z,1
2019-04-30T12:39:00.209Z,1
2019-04-30T12:40:29.117Z,1
2019-04-30T12:41:20.509Z,1
2019-04-30T12:42:30.677Z,1
2019-04-30T12:43:40.624Z,1
2019-04-30T12:44:50.749Z,1
2019-04-30T12:46:05.530Z,1
2019-04-30T12:47:10.994Z,1
2019-04-30T12:48:21.069Z,1
2019-04-30T12:49:31.117Z,1
2019-04-30T12:50:41.232Z,1
2019-04-30T12:51:51.496Z,1
2019-04-30T12:53:01.369Z,1
2019-04-30T12:54:11.411Z,1
2019-04-30T12:55:23.010Z,1
2019-04-30T12:57:41.689Z,1
2019-04-30T12:58:51.696Z,1
2019-04-30T13:00:02.227Z,1
2019-04-30T13:01:12.010Z,1
2019-04-30T13:02:21.905Z,1
2019-04-30T13:03:31.921Z,1
2019-04-30T13:04:42.028Z,1
2019-04-30T13:05:52.877Z,1
2019-04-30T13:07:03.470Z,1
2019-04-30T13:08:13.014Z,1
2019-04-30T13:09:22.885Z,1
2019-04-30T13:10:32.984Z,1
2019-04-30T13:11:43.271Z,1
2019-04-30T13:12:53.313Z,1
2019-04-30T13:14:03.190Z,1
2019-04-30T13:15:12.125Z,1
2019-04-30T13:16:22.292Z,1
2019-04-30T13:17:32.154Z,1
2019-04-30T13:18:42.203Z,1
2019-04-30T13:19:52.155Z,1
2019-04-30T13:21:02.336Z,1
2019-04-30T13:22:12.261Z,1
2019-04-30T13:23:22.219Z,1
2019-04-30T13:24:32.411Z,1
2019-04-30T13:25:51.733Z,1
2019-04-30T13:26:52.413Z,1
2019-04-30T13:28:02.409Z,1
2019-04-30T13:29:12.630Z,1
2019-04-30T13:30:22.578Z,1
2019-04-30T13:31:32.648Z,1
2019-04-30T13:32:42.738Z,1
2019-04-30T13:33:54.542Z,1
2019-04-30T13:35:03.168Z,1
2019-04-30T13:36:13.037Z,1
2019-04-30T13:37:23.144Z,1
2019-04-30T13:38:49.289Z,1
2019-04-30T13:39:52.990Z,1
2019-04-30T13:40:53.540Z,1
2019-04-30T13:42:18.084Z,1
2019-04-30T13:43:13.885Z,1
2019-04-30T13:44:24.070Z,1
2019-04-30T13:45:34.125Z,1
2019-04-30T13:46:44.338Z,1
2019-04-30T13:47:54.567Z,1
2019-04-30T13:49:04.536Z,1
2019-04-30T13:50:14.756Z,1
2019-04-30T13:51:24.924Z,1
2019-04-30T13:52:34.829Z,1
2019-04-30T13:53:44.888Z,1
2019-04-30T13:54:55.033Z,1
2019-04-30T13:56:05.681Z,1
2019-04-30T13:57:15.136Z,1
2019-04-30T13:58:25.753Z,1
2019-04-30T13:59:35.189Z,1
2019-04-30T14:00:45.171Z,1
2019-04-30T14:01:55.210Z,1
2019-04-30T14:03:05.266Z,1
2019-04-30T14:04:16.407Z,1
2019-04-30T14:05:25.165Z,1
2019-04-30T14:06:35.244Z,1
2019-04-30T14:07:45.144Z,1
2019-04-30T14:08:55.050Z,1
2019-04-30T14:10:05.059Z,1
2019-04-30T14:11:14.924Z,1
2019-04-30T14:12:24.870Z,1
2019-04-30T14:13:34.809Z,8.1
2019-04-30T14:14:44.728Z,1
2019-04-30T14:15:54.757Z,1
2019-04-30T14:17:04.626Z,1
2019-04-30T14:18:31.036Z,1
2019-04-30T14:20:34.335Z,1
2019-04-30T14:21:44.247Z,1
2019-04-30T14:22:54.246Z,1
2019-04-30T14:24:04.218Z,1
2019-04-30T14:25:14.058Z,1
2019-04-30T14:27:33.913Z,1
2019-04-30T14:28:43.799Z,1
2019-04-30T14:29:53.723Z,1
2019-04-30T14:31:03.657Z,1
2019-04-30T14:32:13.578Z,1
2019-04-30T14:34:33.487Z,1
2019-04-30T14:35:43.484Z,1
2019-04-30T14:36:53.493Z,1
2019-04-30T14:38:05.346Z,1
2019-04-30T14:39:17.236Z,1
2019-04-30T14:40:24.676Z,1
2019-04-30T14:41:35.007Z,1
2019-04-30T14:42:44.942Z,1
2019-04-30T14:43:54.983Z,1
2019-04-30T14:45:05.040Z,1
2019-04-30T14:46:14.695Z,1
2019-04-30T14:47:25.927Z,1
2019-04-30T14:48:35.702Z,1
2019-04-30T14:50:02.473Z,1
2019-04-30T14:50:54.823Z,1
2019-04-30T14:52:04.371Z,1
2019-04-30T14:53:14.383Z,1
2019-04-30T14:54:24.443Z,1
2019-04-30T14:55:34.961Z,1
2019-04-30T14:56:45.618Z,1
2019-04-30T14:57:54.379Z,1
2019-04-30T14:59:04.309Z,1
2019-04-30T15:00:14.197Z,1
2019-04-30T15:01:24.085Z,1
2019-04-30T15:02:33.964Z,1
2019-04-30T15:03:43.881Z,1
2019-04-30T15:04:53.743Z,1
2019-04-30T15:06:03.695Z,1
2019-04-30T15:07:13.513Z,1
2019-04-30T15:08:23.367Z,1
2019-04-30T15:09:33.272Z,1
2019-04-30T15:10:43.303Z,1
2019-04-30T15:11:53.268Z,1
2019-04-30T15:13:03.002Z,1
2019-04-30T15:14:12.975Z,1
2019-04-30T15:15:23.282Z,1
2019-04-30T15:16:33.047Z,1
2019-04-30T15:17:43.129Z,1
2019-04-30T15:18:53.301Z,1
2019-04-30T15:20:04.440Z,1
2019-04-30T15:21:14.243Z,1
2019-04-30T15:22:24.469Z,1
2019-04-30T15:23:34.411Z,1
2019-04-30T15:24:44.428Z,1
2019-04-30T15:25:54.655Z,1
2019-04-30T15:27:04.371Z,1
2019-04-30T15:28:14.396Z,1
2019-04-30T15:29:24.497Z,1
2019-04-30T15:30:34.294Z,1
2019-04-30T15:31:44.319Z,1
2019-04-30T15:32:54.192Z,1
2019-04-30T15:34:04.117Z,1
2019-04-30T15:35:14.064Z,1
2019-04-30T15:36:23.991Z,1
2019-04-30T15:37:33.871Z,1
2019-04-30T15:38:43.759Z,1
2019-04-30T15:39:53.762Z,1
2019-04-30T15:41:03.570Z,1
2019-04-30T15:42:13.368Z,1
2019-04-30T15:43:23.718Z,1
2019-04-30T15:44:41.048Z,1
2019-04-30T15:45:43.244Z,1
2019-04-30T15:46:53.222Z,1
2019-04-30T15:48:03.195Z,1
2019-04-30T15:49:13.246Z,1
2019-04-30T15:50:23.260Z,1
2019-04-30T15:51:33.254Z,1
2019-04-30T15:52:43.469Z,1
2019-04-30T15:53:53.384Z,1
2019-04-30T15:55:03.410Z,1
2019-04-30T15:56:13.418Z,1
2019-04-30T15:57:23.457Z,1
2019-04-30T15:58:33.500Z,1
2019-04-30T15:59:43.445Z,1
2019-04-30T16:00:53.403Z,1
2019-04-30T16:02:03.526Z,1
2019-04-30T16:03:13.475Z,1
2019-04-30T16:04:23.408Z,1
2019-04-30T16:05:33.400Z,1
2019-04-30T16:06:43.382Z,1
2019-04-30T16:07:53.286Z,1
2019-04-30T16:09:03.045Z,1
2019-04-30T16:10:12.904Z,1
2019-04-30T16:11:22.793Z,1
2019-04-30T16:12:32.685Z,1
2019-04-30T16:13:42.355Z,1
2019-04-30T16:14:52.102Z,1
2019-04-30T16:16:01.904Z,1
2019-04-30T16:17:11.605Z,1
2019-04-30T16:18:21.419Z,1
2019-04-30T16:19:31.075Z,1
2019-04-30T16:20:40.814Z,1
2019-04-30T16:21:50.724Z,1
2019-04-30T16:23:00.290Z,1
2019-04-30T16:24:09.975Z,1
2019-04-30T16:25:19.644Z,1
2019-04-30T16:26:30.921Z,1
2019-04-30T16:27:39.032Z,1
2019-04-30T16:28:49.660Z,1
2019-04-30T16:29:59.608Z,1
2019-04-30T16:31:08.117Z,1
2019-04-30T16:32:17.972Z,1
2019-04-30T16:33:29.497Z,1
2019-04-30T16:34:39.045Z,1
2019-04-30T16:35:46.779Z,1
2019-04-30T16:36:56.855Z,1
2019-04-30T16:38:06.127Z,1
2019-04-30T16:39:15.763Z,1
2019-04-30T16:40:25.501Z,1
2019-04-30T16:41:35.061Z,1
2019-04-30T16:42:44.729Z,1
2019-04-30T16:43:54.729Z,1
2019-04-30T16:45:04.077Z,1
2019-04-30T16:46:13.763Z,1